Time;durP1;ratioP1;P1;durP2;ratioP2;P2;SDS_P1;SDS_P2;PMS_P1;PMS_P2;Temp;Humidity;BMP_temperature;BMP_pressure;BME280_temperature;BME280_humidity;BME280_pressure;Samples;Min_cycle;Max_cycle;Signal;HPM_P1;HPM_P2
2023/11/23 00:04:11;;;;;;;;;26.75;24.25;;;;;24.36;27.26;102001.10;245650;1182;73691;-56
2023/11/23 00:09:14;;;;;;;;;25.50;24.50;;;;;24.36;27.32;102004.65;245672;1182;72464;-56
2023/11/23 00:14:17;;;;;;;;;27.25;23.75;;;;;24.36;27.26;102011.23;245642;1184;73346;-56
2023/11/23 00:19:20;;;;;;;;;28.25;25.50;;;;;24.38;27.28;102011.39;245638;1177;57508;-56
2023/11/23 00:24:24;;;;;;;;;23.50;22.75;;;;;24.36;27.23;102019.08;245581;1177;57524;-56
2023/11/23 00:29:27;;;;;;;;;23.33;23.33;;;;;24.36;27.27;102029.13;245617;1183;73235;-56
2023/11/23 00:34:30;;;;;;;;;25.25;25.25;;;;;24.36;27.25;102018.55;245644;1182;57775;-56
2023/11/23 00:39:34;;;;;;;;;26.75;25.00;;;;;24.37;27.26;102015.89;245609;1183;74328;-56
2023/11/23 00:44:37;;;;;;;;;24.25;21.75;;;;;24.37;27.26;102008.39;245560;1182;74213;-56
2023/11/23 00:49:40;;;;;;;;;24.00;22.00;;;;;24.35;27.18;102007.88;245615;1183;73975;-56
2023/11/23 00:54:43;;;;;;;;;22.25;22.00;;;;;24.36;27.36;102008.47;245661;1177;57539;-56
2023/11/23 00:59:46;;;;;;;;;28.00;23.33;;;;;24.38;27.55;102012.61;245633;1178;57496;-56
2023/11/23 01:04:49;;;;;;;;;23.25;21.50;;;;;24.38;27.51;102009.71;245635;1179;57437;-56
2023/11/23 01:09:52;;;;;;;;;25.67;22.67;;;;;24.38;27.45;102004.02;245663;1177;57590;-56
2023/11/23 01:14:55;;;;;;;;;22.33;21.00;;;;;24.39;27.60;101999.96;245632;1177;57522;-56
2023/11/23 01:19:58;;;;;;;;;23.33;23.33;;;;;24.39;27.57;101999.38;245602;1177;57612;-56
2023/11/23 01:25:06;;;;;;;;;23.67;22.00;;;;;24.40;27.81;101988.73;245653;1181;57802;-56
2023/11/23 01:30:10;;;;;;;;;22.00;19.25;;;;;24.40;27.95;101983.60;245645;1177;74428;-56
2023/11/23 01:35:13;;;;;;;;;25.25;22.50;;;;;24.40;27.96;101976.07;245619;1183;74419;-56
2023/11/23 01:40:16;;;;;;;;;21.75;20.75;;;;;24.40;28.00;101965.52;245676;1182;57453;-56
2023/11/23 01:45:20;;;;;;;;;21.25;21.25;;;;;24.40;28.19;101970.69;245713;1182;74192;-56
2023/11/23 01:50:25;;;;;;;;;23.00;21.25;;;;;24.40;28.17;101972.27;245626;1184;73417;-56
2023/11/23 01:55:28;;;;;;;;;20.67;20.67;;;;;24.40;28.10;101962.14;245649;1182;72798;-55
2023/11/23 02:00:31;;;;;;;;;21.25;20.50;;;;;24.39;28.23;101960.88;245632;1180;57606;-55
2023/11/23 02:05:34;;;;;;;;;22.00;21.33;;;;;24.40;28.02;101960.92;245685;1183;57486;-56
2023/11/23 02:10:37;;;;;;;;;20.00;20.00;;;;;24.40;27.95;101957.73;245703;1177;57509;-56
2023/11/23 02:15:40;;;;;;;;;23.00;22.00;;;;;24.40;28.31;101960.29;245625;1183;57565;-56
2023/11/23 02:20:46;;;;;;;;;19.50;19.50;;;;;24.40;28.38;101956.30;245678;1182;73004;-56
2023/11/23 02:25:50;;;;;;;;;24.00;24.00;;;;;24.39;28.28;101952.85;245664;1181;72466;-56
2023/11/23 02:30:52;;;;;;;;;23.00;21.50;;;;;24.39;28.32;101962.52;245670;1180;57602;-56
2023/11/23 02:35:55;;;;;;;;;22.67;21.67;;;;;24.39;28.44;101966.73;245696;1177;57494;-56
2023/11/23 02:40:58;;;;;;;;;21.67;20.67;;;;;24.39;28.35;101972.95;245677;1182;57457;-56
2023/11/23 02:46:02;;;;;;;;;20.50;19.00;;;;;24.39;28.36;101981.75;245682;1177;57487;-56
2023/11/23 02:51:05;;;;;;;;;20.50;20.00;;;;;24.39;28.53;101985.23;245699;1177;57814;-56
2023/11/23 02:56:09;;;;;;;;;24.00;24.00;;;;;24.38;28.63;101985.48;245690;1177;57920;-56
2023/11/23 03:01:14;;;;;;;;;19.33;19.00;;;;;24.38;28.59;101985.89;245662;1182;72730;-56
2023/11/23 03:06:17;;;;;;;;;21.67;21.67;;;;;24.37;28.60;101986.52;245677;1184;71836;-56
2023/11/23 03:11:21;;;;;;;;;23.25;21.25;;;;;24.37;28.68;101983.99;245710;1177;57538;-56
2023/11/23 03:16:24;;;;;;;;;20.25;19.50;;;;;24.37;28.74;101992.75;245588;1184;72923;-56
2023/11/23 03:21:27;;;;;;;;;20.67;20.00;;;;;24.36;28.86;102003.59;245710;1182;57492;-56
2023/11/23 03:26:30;;;;;;;;;24.75;21.25;;;;;24.35;28.75;102015.17;245699;1177;57466;-56
2023/11/23 03:31:34;;;;;;;;;18.50;18.50;;;;;24.35;28.83;102019.05;245679;1177;57508;-56
2023/11/23 03:36:37;;;;;;;;;20.50;19.00;;;;;24.35;28.89;102022.55;245602;1182;73137;-56
2023/11/23 03:41:40;;;;;;;;;21.50;21.50;;;;;24.35;28.94;102044.23;245670;1182;57772;-56
2023/11/23 03:46:43;;;;;;;;;23.75;21.25;;;;;24.34;28.92;102043.39;245677;1182;57863;-56
2023/11/23 03:51:46;;;;;;;;;19.25;19.25;;;;;24.34;28.95;102043.44;245709;1177;57444;-56
2023/11/23 03:56:49;;;;;;;;;21.00;21.00;;;;;24.33;29.14;102052.05;245642;1183;57621;-56
2023/11/23 04:01:52;;;;;;;;;25.33;23.33;;;;;24.32;28.62;102053.01;245640;1179;57507;-55
2023/11/23 04:06:56;;;;;;;;;23.00;23.00;;;;;24.31;28.21;102053.59;245661;1183;71974;-56
2023/11/23 04:11:58;;;;;;;;;19.25;19.25;;;;;24.38;27.91;102057.14;245587;1182;57924;-56
2023/11/23 04:17:02;;;;;;;;;24.75;24.75;;;;;24.50;27.45;102057.44;245664;1182;57471;-56
2023/11/23 04:22:06;;;;;;;;;23.50;23.00;;;;;24.65;26.78;102052.19;245643;1181;57595;-55
2023/11/23 04:27:09;;;;;;;;;24.25;23.25;;;;;24.81;26.29;102035.90;245625;1177;73569;-56
2023/11/23 04:32:12;;;;;;;;;24.25;23.00;;;;;24.97;25.93;102028.52;245622;1183;57524;-55
2023/11/23 04:37:17;;;;;;;;;26.25;23.75;;;;;25.11;25.63;102015.44;245605;1183;57474;-56
2023/11/23 04:42:20;;;;;;;;;25.25;23.75;;;;;25.20;25.24;102008.52;245546;1182;72640;-56
2023/11/23 04:47:23;;;;;;;;;22.25;22.00;;;;;25.27;24.80;101994.73;245629;1177;57510;-56
2023/11/23 04:52:26;;;;;;;;;23.75;23.50;;;;;25.34;24.54;101977.16;245625;1186;73132;-56
2023/11/23 04:57:29;;;;;;;;;27.50;26.00;;;;;25.40;24.27;101975.28;245610;1183;57629;-56
2023/11/23 05:02:32;;;;;;;;;29.33;28.33;;;;;25.46;24.03;101984.27;245625;1177;57561;-56
2023/11/23 05:07:35;;;;;;;;;28.00;25.00;;;;;25.52;24.09;101976.80;245592;1177;57751;-56
2023/11/23 05:12:39;;;;;;;;;30.00;29.00;;;;;25.56;23.74;101977.15;245593;1182;57646;-56
2023/11/23 05:17:42;;;;;;;;;35.25;33.25;;;;;25.32;20.77;101970.55;245631;1177;72284;-56
2023/11/23 05:22:45;;;;;;;;;39.75;34.00;;;;;24.81;20.42;101966.65;245596;1180;57904;-56
2023/11/23 05:27:48;;;;;;;;;40.50;35.00;;;;;24.44;20.18;101947.89;245539;1183;72760;-56
2023/11/23 05:32:51;;;;;;;;;39.33;34.67;;;;;24.19;20.12;101948.95;245557;1179;57804;-56
2023/11/23 05:37:55;;;;;;;;;44.50;37.25;;;;;24.01;19.92;101953.34;245493;1182;57596;-55
2023/11/23 05:42:58;;;;;;;;;41.33;37.33;;;;;23.85;20.12;101966.02;245375;1182;57817;-56
2023/11/23 05:48:07;;;;;;;;;33.50;30.75;;;;;23.84;21.93;101967.39;245390;1182;74288;-56
2023/11/23 05:53:11;;;;;;;;;32.25;31.25;;;;;24.16;25.62;101968.52;245337;1184;73109;-56
2023/11/23 05:58:14;;;;;;;;;29.33;29.33;;;;;24.47;24.74;101965.82;245293;1181;57582;-58
2023/11/23 06:03:17;;;;;;;;;34.75;32.00;;;;;24.89;26.30;101964.45;245255;1180;58206;-57
2023/11/23 06:08:22;;;;;;;;;29.50;28.75;;;;;25.29;26.71;101977.28;245292;1177;73238;-57
2023/11/23 06:13:26;;;;;;;;;27.00;26.00;;;;;25.64;27.11;101969.86;245015;1177;57752;-58
2023/11/23 06:18:30;;;;;;;;;29.75;28.00;;;;;25.92;27.28;101966.48;245345;1177;73295;-56
2023/11/23 06:23:34;;;;;;;;;33.33;30.33;;;;;26.18;27.67;101955.89;245339;1182;73912;-56
2023/11/23 06:28:39;;;;;;;;;28.50;26.00;;;;;26.43;27.97;101955.77;245363;1182;72600;-57
2023/11/23 06:33:44;;;;;;;;;23.67;22.67;;;;;26.62;28.10;101946.73;245518;1182;74358;-56
2023/11/23 06:38:47;;;;;;;;;28.33;27.67;;;;;26.81;28.12;101943.18;245515;1182;57674;-57
2023/11/23 06:43:51;;;;;;;;;28.00;26.00;;;;;26.97;28.11;101944.23;245437;1177;57578;-57
2023/11/23 06:48:55;;;;;;;;;30.33;25.00;;;;;27.08;28.27;101940.25;245433;1177;73310;-57
2023/11/23 06:53:58;;;;;;;;;35.00;31.00;;;;;27.07;26.16;101937.77;245279;1179;73570;-58
2023/11/23 06:59:01;;;;;;;;;35.67;31.33;;;;;26.85;24.64;101936.02;245262;1177;57616;-58
2023/11/23 07:04:04;;;;;;;;;32.00;30.00;;;;;26.58;23.51;101933.89;245254;1181;57623;-58
2023/11/23 07:09:08;;;;;;;;;30.50;29.00;;;;;26.46;23.37;101926.05;245278;1177;73671;-56
2023/11/23 07:14:12;;;;;;;;;30.00;27.67;;;;;26.44;23.83;101934.20;245379;1177;73331;-58
2023/11/23 07:19:16;;;;;;;;;37.00;33.25;;;;;26.31;22.95;101925.35;245310;1184;73349;-58
2023/11/23 07:24:20;;;;;;;;;30.25;30.00;;;;;26.31;22.96;101912.40;245445;1183;73578;-57
2023/11/23 07:29:27;;;;;;;;;30.50;28.75;;;;;26.35;22.97;101907.57;245519;1181;73173;-57
2023/11/23 07:34:31;;;;;;;;;31.75;27.75;;;;;26.40;23.16;101904.60;245448;1181;74261;-59
2023/11/23 07:39:34;;;;;;;;;30.00;30.00;;;;;26.43;23.14;101892.45;245436;1177;72972;-58
2023/11/23 07:44:37;;;;;;;;;26.50;25.75;;;;;26.42;23.69;101882.53;245362;1177;57685;-58
2023/11/23 07:49:46;;;;;;;;;31.50;27.00;;;;;26.39;23.45;101876.11;245335;1179;57616;-58
2023/11/23 07:54:49;;;;;;;;;30.25;26.00;;;;;26.38;24.48;101867.39;245414;1181;72864;-58
2023/11/23 07:59:56;;;;;;;;;29.67;29.00;;;;;26.37;25.97;101859.04;245438;1177;57568;-59
2023/11/23 08:05:00;;;;;;;;;25.75;24.50;;;;;26.33;27.04;101858.13;245433;1177;73190;-58
2023/11/23 08:10:10;;;;;;;;;29.50;28.75;;;;;26.62;28.71;101856.82;245355;1177;73023;-58
2023/11/23 08:15:13;;;;;;;;;29.50;29.50;;;;;26.97;29.54;101839.81;245426;1177;74040;-59
2023/11/23 08:20:17;;;;;;;;;29.00;29.00;;;;;27.26;30.14;101836.52;245299;1177;72196;-58
2023/11/23 08:25:20;;;;;;;;;22.75;22.25;;;;;27.50;30.54;101832.23;245413;1177;74084;-57
2023/11/23 08:30:23;;;;;;;;;26.67;26.67;;;;;27.69;31.04;101821.94;245473;1179;57473;-58
2023/11/23 08:35:28;;;;;;;;;28.00;25.00;;;;;27.83;31.43;101806.52;245388;1180;57755;-57
2023/11/23 08:45:54;;;;;;;;;24.25;21.50;;;;;28.08;32.04;101765.40;245403;1177;73503;-57
2023/11/23 08:50:57;;;;;;;;;27.33;25.00;;;;;28.15;32.37;101758.40;245422;1177;57740;-58
2023/11/23 08:56:04;;;;;;;;;23.50;23.50;;;;;28.19;32.23;101752.55;245356;1182;72720;-57
2023/11/23 09:01:07;;;;;;;;;32.00;29.50;;;;;28.12;31.59;101734.88;245341;1182;73206;-56
2023/11/23 09:06:11;;;;;;;;;22.25;22.00;;;;;27.91;30.93;101728.30;245121;1177;73951;-57
2023/11/23 09:11:15;;;;;;;;;32.00;28.00;;;;;27.99;31.36;101720.27;245359;1182;72799;-57
2023/11/23 09:16:19;;;;;;;;;25.25;22.25;;;;;28.09;31.57;101706.17;245251;1177;73456;-57
2023/11/23 09:21:22;;;;;;;;;28.00;22.50;;;;;28.16;31.73;101692.06;245389;1180;73456;-57
2023/11/23 09:26:25;;;;;;;;;25.33;23.33;;;;;28.22;31.61;101678.48;245296;1177;72005;-57
2023/11/23 09:31:31;;;;;;;;;24.00;21.67;;;;;28.27;31.44;101677.63;245367;1177;57598;-56
2023/11/23 09:36:34;;;;;;;;;26.00;23.00;;;;;28.31;31.34;101664.74;245363;1184;73211;-57
2023/11/23 09:41:40;;;;;;;;;23.75;23.75;;;;;28.38;30.83;101653.82;245422;1181;57560;-58
2023/11/23 09:46:45;;;;;;;;;28.25;28.25;;;;;28.51;30.81;101639.12;245366;1183;73332;-57
2023/11/23 09:51:50;;;;;;;;;26.00;25.50;;;;;28.63;30.19;101623.88;245350;1179;73922;-57
2023/11/23 09:56:54;;;;;;;;;33.50;29.75;;;;;28.63;28.45;101614.25;245382;1177;73480;-57
2023/11/23 10:02:03;;;;;;;;;38.50;33.75;;;;;28.15;24.04;101600.84;245476;1180;74275;-57
2023/11/23 10:07:08;;;;;;;;;38.25;34.00;;;;;27.62;22.51;101586.89;245392;1177;74525;-56
2023/11/23 10:12:11;;;;;;;;;41.00;35.50;;;;;27.33;21.66;101580.64;245395;1182;57685;-59
2023/11/23 10:17:14;;;;;;;;;36.33;32.00;;;;;27.06;21.12;101584.65;245457;1177;58044;-56
2023/11/23 10:22:17;;;;;;;;;40.50;33.75;;;;;26.87;20.70;101581.48;245407;1182;58053;-56
2023/11/23 10:27:20;;;;;;;;;38.25;31.50;;;;;26.63;20.56;101551.85;245465;1182;57552;-56
2023/11/23 10:32:24;;;;;;;;;34.50;31.75;;;;;26.54;20.49;101529.48;245010;1177;74011;-56
2023/11/23 10:37:28;;;;;;;;;36.25;33.00;;;;;26.51;20.29;101524.04;245475;1177;72893;-56
2023/11/23 10:42:33;;;;;;;;;38.75;34.75;;;;;26.43;20.17;101512.71;245471;1177;73512;-54
2023/11/23 10:47:37;;;;;;;;;33.00;31.00;;;;;26.42;20.57;101496.34;245480;1183;74390;-58
2023/11/23 10:52:45;;;;;;;;;32.00;30.25;;;;;26.61;20.98;101477.70;245355;1177;74157;-54
2023/11/23 10:57:55;;;;;;;;;31.50;31.00;;;;;26.94;20.89;101452.29;245305;1181;72212;-57
2023/11/23 11:03:01;;;;;;;;;36.00;33.00;;;;;27.30;20.65;101435.86;245322;1182;73288;-57
2023/11/23 11:08:07;;;;;;;;;34.00;31.50;;;;;27.56;20.77;101424.65;245352;1182;73990;-58
2023/11/23 11:13:12;;;;;;;;;32.50;27.50;;;;;27.81;20.85;101407.92;245452;1182;73167;-58
2023/11/23 11:18:20;;;;;;;;;31.50;28.00;;;;;28.02;20.94;101392.27;245399;1177;73842;-57
2023/11/23 11:23:24;;;;;;;;;27.75;27.75;;;;;28.14;20.87;101380.06;245495;1184;72205;-57
2023/11/23 11:28:28;;;;;;;;;27.75;26.00;;;;;28.21;21.00;101368.55;245412;1182;72768;-57
2023/11/23 11:33:32;;;;;;;;;26.75;26.75;;;;;28.23;21.26;101365.39;245457;1182;74133;-56
2023/11/23 11:38:39;;;;;;;;;28.25;26.00;;;;;28.12;21.38;101351.13;245416;1177;74200;-56
2023/11/23 11:43:44;;;;;;;;;33.00;29.67;;;;;27.98;21.73;101338.79;245451;1183;74189;-56
2023/11/23 11:48:48;;;;;;;;;28.75;28.75;;;;;27.94;22.03;101324.70;245446;1179;74453;-57
2023/11/23 11:53:53;;;;;;;;;28.50;26.75;;;;;27.92;22.18;101313.54;245402;1182;73780;-57
2023/11/23 11:58:58;;;;;;;;;30.25;27.00;;;;;27.96;22.07;101300.60;245419;1183;73931;-56
2023/11/23 12:04:02;;;;;;;;;24.75;24.00;;;;;27.95;22.19;101302.66;245557;1177;72198;-58
2023/11/23 12:09:14;;;;;;;;;31.00;27.25;;;;;27.90;22.28;101293.70;245506;1182;74263;-57
2023/11/23 12:14:18;;;;;;;;;27.75;27.00;;;;;27.86;22.51;101291.09;245538;1182;73496;-58
2023/11/23 12:19:24;;;;;;;;;24.00;24.00;;;;;27.82;22.46;101282.02;245461;1188;73845;-58
2023/11/23 12:24:29;;;;;;;;;26.75;25.50;;;;;27.68;22.88;101268.52;245543;1183;74320;-57
2023/11/23 12:29:33;;;;;;;;;28.75;28.75;;;;;27.56;22.93;101265.17;245553;1181;72726;-58
2023/11/23 12:34:36;;;;;;;;;29.50;28.00;;;;;27.41;23.12;101251.50;245594;1187;72515;-58
2023/11/23 12:39:40;;;;;;;;;30.25;27.75;;;;;27.29;23.12;101244.67;245560;1180;73041;-58
2023/11/23 12:44:44;;;;;;;;;30.25;28.75;;;;;27.18;23.69;101227.06;245492;1177;57559;-57
2023/11/23 12:49:47;;;;;;;;;30.33;26.33;;;;;27.11;24.04;101218.92;245444;1177;73971;-57
2023/11/23 12:54:50;;;;;;;;;39.00;31.75;;;;;27.01;24.12;101213.75;245563;1177;57539;-57
2023/11/23 12:59:53;;;;;;;;;34.00;29.00;;;;;26.95;24.34;101201.23;245689;1177;57776;-57
2023/11/23 13:04:57;;;;;;;;;32.75;31.00;;;;;26.85;24.13;101194.95;245672;1177;57579;-58
2023/11/23 13:10:05;;;;;;;;;29.00;29.00;;;;;26.73;24.63;101185.08;241738;1177;73102;-58
2023/11/23 13:15:12;;;;;;;;;35.75;28.75;;;;;26.50;24.72;101180.05;245659;1184;74330;-57
2023/11/23 13:20:15;;;;;;;;;31.50;28.50;;;;;26.43;24.74;101166.92;242018;1177;73040;-57
2023/11/23 13:25:20;;;;;;;;;29.00;25.75;;;;;26.22;24.93;101158.91;240236;1177;73860;-57
2023/11/23 13:30:30;;;;;;;;;31.25;29.00;;;;;25.96;25.37;101157.51;240340;1180;73675;-57
2023/11/23 13:35:34;;;;;;;;;27.00;26.50;;;;;25.77;25.57;101154.90;240284;1177;73442;-57
2023/11/23 13:40:38;;;;;;;;;29.50;26.50;;;;;25.67;25.71;101148.98;240291;1177;58787;-58
2023/11/23 13:45:49;;;;;;;;;31.25;30.00;;;;;25.63;25.70;101146.97;245652;1177;73358;-58
2023/11/23 13:50:52;;;;;;;;;29.00;25.75;;;;;25.75;25.69;101146.16;245635;1183;72960;-56
2023/11/23 13:55:56;;;;;;;;;25.75;25.50;;;;;25.79;25.45;101138.78;245631;1182;57477;-57
2023/11/23 14:01:00;;;;;;;;;31.25;29.75;;;;;25.76;25.61;101128.77;245680;1179;72535;-57
2023/11/23 14:06:06;;;;;;;;;32.00;30.25;;;;;25.73;25.52;101120.08;245581;1187;73465;-56
2023/11/23 14:11:09;;;;;;;;;31.00;27.25;;;;;25.71;25.57;101112.27;245528;1182;73846;-57
2023/11/23 14:16:12;;;;;;;;;31.25;28.25;;;;;25.70;25.50;101097.85;245559;1183;73494;-57
2023/11/23 14:21:15;;;;;;;;;29.25;29.25;;;;;25.67;25.57;101097.45;245573;1182;73595;-57
2023/11/23 14:26:21;;;;;;;;;27.25;27.25;;;;;25.65;25.58;101097.04;245542;1183;73080;-57
2023/11/23 14:31:24;;;;;;;;;29.50;28.50;;;;;25.61;25.66;101086.05;245486;1182;73830;-56
2023/11/23 14:36:27;;;;;;;;;28.00;27.25;;;;;25.56;25.66;101080.86;245571;1183;74316;-57
2023/11/23 14:41:32;;;;;;;;;24.75;24.75;;;;;25.52;25.83;101068.53;245576;1177;72570;-57
2023/11/23 14:46:36;;;;;;;;;27.67;25.00;;;;;25.49;25.77;101060.90;245583;1177;57540;-58
2023/11/23 14:51:39;;;;;;;;;28.50;26.50;;;;;25.45;25.79;101041.73;245690;1183;73847;-57
2023/11/23 14:56:49;;;;;;;;;23.50;23.50;;;;;25.43;26.12;101032.42;245716;1181;73970;-58
2023/11/23 15:01:56;;;;;;;;;23.33;23.33;;;;;25.40;25.98;101021.83;245590;1183;72779;-57
2023/11/23 15:06:59;;;;;;;;;24.25;24.25;;;;;25.38;26.05;101020.53;245647;1184;72581;-57
2023/11/23 15:12:03;;;;;;;;;27.00;25.75;;;;;25.37;26.22;101013.75;245668;1182;73747;-58
2023/11/23 15:17:06;;;;;;;;;29.25;27.50;;;;;25.36;26.18;101004.75;245672;1182;73041;-57
2023/11/23 15:22:10;;;;;;;;;26.00;23.00;;;;;25.35;26.30;100996.21;245661;1183;73542;-58
2023/11/23 15:27:13;;;;;;;;;26.00;26.00;;;;;25.33;26.26;100980.52;245674;1183;73159;-57
2023/11/23 15:32:17;;;;;;;;;28.50;24.50;;;;;25.32;26.31;100972.52;245679;1177;72890;-58
2023/11/23 15:37:20;;;;;;;;;23.75;23.50;;;;;25.30;26.23;100965.80;245608;1182;73925;-57
2023/11/23 15:42:24;;;;;;;;;30.25;27.25;;;;;25.27;26.42;100965.46;245608;1177;72926;-58
2023/11/23 15:47:27;;;;;;;;;29.50;26.50;;;;;25.23;26.44;100964.64;245633;1183;73678;-57
2023/11/23 15:52:30;;;;;;;;;25.00;23.75;;;;;25.21;26.43;100959.92;245642;1177;73480;-58
2023/11/23 15:57:33;;;;;;;;;27.25;25.00;;;;;25.20;26.41;100946.02;245616;1181;57607;-57
2023/11/23 16:02:40;;;;;;;;;25.67;23.00;;;;;25.20;26.64;100945.17;245587;1181;57493;-58
2023/11/23 16:07:44;;;;;;;;;23.00;21.33;;;;;25.19;26.42;100942.20;245640;1177;73432;-58
2023/11/23 16:12:48;;;;;;;;;28.00;27.00;;;;;25.19;26.66;100945.70;245626;1182;73713;-57
2023/11/23 16:17:51;;;;;;;;;26.50;25.75;;;;;25.18;26.60;100941.30;245592;1182;73686;-57
2023/11/23 16:22:54;;;;;;;;;22.25;22.25;;;;;25.18;26.71;100931.44;245638;1182;57531;-58
2023/11/23 16:27:58;;;;;;;;;24.00;23.75;;;;;25.17;26.68;100919.95;245582;1182;72481;-57
2023/11/23 16:33:02;;;;;;;;;22.25;22.25;;;;;25.13;26.84;100914.08;245535;1183;73738;-58
2023/11/23 16:38:05;;;;;;;;;23.25;23.25;;;;;25.11;26.81;100921.89;245590;1183;73513;-58
2023/11/23 16:43:08;;;;;;;;;23.33;22.00;;;;;25.11;26.84;100920.08;245600;1182;57634;-58
2023/11/23 16:48:12;;;;;;;;;26.00;25.00;;;;;25.11;26.99;100909.40;245608;1182;73478;-58
2023/11/23 16:53:15;;;;;;;;;25.00;23.67;;;;;25.11;26.93;100903.75;245608;1182;74612;-57
2023/11/23 16:58:19;;;;;;;;;22.50;21.50;;;;;25.10;26.96;100890.71;245605;1177;73161;-58
2023/11/23 17:03:22;;;;;;;;;25.25;24.25;;;;;25.08;26.97;100872.98;245597;1182;74214;-58
2023/11/23 17:08:25;;;;;;;;;23.25;23.25;;;;;25.08;26.85;100861.15;245610;1182;57561;-58
2023/11/23 17:13:28;;;;;;;;;26.50;23.75;;;;;25.07;27.06;100845.54;245586;1183;57532;-58
2023/11/23 17:18:31;;;;;;;;;25.67;23.67;;;;;25.06;27.08;100831.27;245714;1183;72995;-58
2023/11/23 17:23:36;;;;;;;;;23.00;22.50;;;;;25.06;27.22;100819.59;245599;1183;73211;-58
2023/11/23 17:28:40;;;;;;;;;22.75;22.75;;;;;25.07;27.20;100809.86;245600;1182;71905;-58
2023/11/23 17:33:43;;;;;;;;;22.67;21.00;;;;;25.04;27.02;100800.02;245640;1181;72732;-58
2023/11/23 17:38:46;;;;;;;;;20.50;20.50;;;;;25.02;27.14;100783.10;245650;1181;57454;-58
2023/11/23 17:43:51;;;;;;;;;24.00;23.00;;;;;25.01;26.91;100767.35;245680;1183;57533;-58
2023/11/23 17:48:54;;;;;;;;;23.75;22.50;;;;;25.00;27.24;100771.66;245651;1183;74326;-58
2023/11/23 17:53:57;;;;;;;;;28.50;28.00;;;;;24.99;27.24;100753.37;245576;1182;57947;-58
2023/11/23 17:59:03;;;;;;;;;25.00;25.00;;;;;24.97;27.09;100741.77;245624;1177;57537;-57
2023/11/23 18:04:26;;;;;;;;;25.50;23.50;;;;;24.97;27.31;100722.50;245658;1184;72648;-58
2023/11/23 18:09:31;;;;;;;;;25.50;25.00;;;;;24.96;27.15;100711.42;245665;1177;72951;-58
2023/11/23 18:14:35;;;;;;;;;24.75;23.75;;;;;24.96;27.05;100712.08;245659;1177;74806;-58
2023/11/23 18:19:38;;;;;;;;;24.75;24.75;;;;;24.95;27.05;100713.88;245692;1183;73517;-58
2023/11/23 18:24:41;;;;;;;;;23.33;23.33;;;;;24.95;27.21;100709.10;245685;1180;58287;-58
2023/11/23 18:29:45;;;;;;;;;25.00;22.00;;;;;24.94;27.14;100701.59;245681;1177;57875;-58
2023/11/23 18:34:48;;;;;;;;;20.25;20.25;;;;;24.93;27.31;100693.18;245666;1179;57564;-58
2023/11/23 18:39:51;;;;;;;;;22.00;21.25;;;;;24.91;27.28;100675.70;245700;1182;72254;-58
2023/11/23 18:44:54;;;;;;;;;21.25;20.00;;;;;24.90;27.24;100660.89;245680;1177;73182;-57
2023/11/23 18:49:57;;;;;;;;;27.00;27.00;;;;;24.89;27.19;100654.91;245680;1177;57515;-58
2023/11/23 18:55:01;;;;;;;;;27.00;25.50;;;;;24.87;27.30;100646.22;245688;1183;72729;-58
2023/11/23 19:00:08;;;;;;;;;28.50;24.75;;;;;24.87;27.25;100628.85;245670;1182;57569;-58
2023/11/23 19:05:13;;;;;;;;;22.00;22.00;;;;;24.86;27.35;100628.45;245649;1181;73947;-57
2023/11/23 19:10:17;;;;;;;;;23.25;21.50;;;;;24.86;27.24;100622.16;245621;1178;73129;-58
2023/11/23 19:15:23;;;;;;;;;23.50;23.50;;;;;24.86;27.34;100602.80;245669;1184;73563;-57
2023/11/23 19:20:26;;;;;;;;;25.25;25.25;;;;;24.85;27.18;100598.71;245612;1177;73492;-58
2023/11/23 19:25:30;;;;;;;;;20.50;19.50;;;;;24.84;27.30;100606.42;245662;1182;57526;-57
2023/11/23 19:30:39;;;;;;;;;20.50;20.50;;;;;24.84;27.15;100598.54;245661;1177;72834;-58
2023/11/23 19:35:42;;;;;;;;;20.00;20.00;;;;;24.84;27.29;100583.70;245625;1182;73508;-58
2023/11/23 19:40:46;;;;;;;;;28.00;24.00;;;;;24.83;27.20;100572.53;245637;1190;72822;-57
2023/11/23 19:45:50;;;;;;;;;20.75;20.75;;;;;24.82;27.34;100567.15;245619;1177;74279;-58
2023/11/23 19:50:53;;;;;;;;;25.00;25.00;;;;;24.82;27.38;100556.68;245635;1183;73367;-57
2023/11/23 19:55:57;;;;;;;;;23.00;21.75;;;;;24.83;27.49;100555.28;245620;1177;73568;-58
2023/11/23 20:01:01;;;;;;;;;18.50;18.00;;;;;24.83;27.41;100548.62;245588;1183;73088;-57
2023/11/23 20:06:04;;;;;;;;;21.25;19.00;;;;;24.84;27.46;100529.39;245608;1177;73583;-58
2023/11/23 20:11:08;;;;;;;;;22.50;22.50;;;;;24.83;27.57;100511.85;245588;1183;73231;-57
2023/11/23 20:16:12;;;;;;;;;22.25;21.75;;;;;24.82;27.47;100495.48;245640;1181;57474;-58
2023/11/23 20:21:33;;;;;;;;;23.25;22.50;;;;;24.81;27.47;100479.05;245545;1180;73932;-58
2023/11/23 20:26:37;;;;;;;;;23.75;23.75;;;;;24.80;27.47;100475.75;245562;1190;73418;-57
2023/11/23 20:31:41;;;;;;;;;23.25;23.25;;;;;24.80;27.54;100475.04;245536;1182;74424;-58
2023/11/23 20:36:44;;;;;;;;;20.00;20.00;;;;;24.81;27.49;100473.67;245565;1182;73464;-58
2023/11/23 20:41:49;;;;;;;;;18.50;17.25;;;;;24.79;27.57;100459.49;245614;1183;73859;-57
2023/11/23 20:46:55;;;;;;;;;21.25;21.25;;;;;24.78;27.63;100450.43;245622;1182;73364;-58
2023/11/23 20:51:58;;;;;;;;;21.50;21.50;;;;;24.76;27.59;100440.75;245607;1177;73197;-58
2023/11/23 20:57:02;;;;;;;;;20.75;20.75;;;;;24.75;27.62;100430.02;245611;1183;73176;-57
2023/11/23 21:02:07;;;;;;;;;23.50;23.50;;;;;24.74;27.59;100407.35;245607;1177;73265;-59
2023/11/23 21:07:11;;;;;;;;;23.00;22.25;;;;;24.72;27.53;100391.17;245550;1182;73361;-59
2023/11/23 21:12:14;;;;;;;;;23.50;21.00;;;;;24.72;27.55;100389.70;245560;1180;73663;-58
2023/11/23 21:17:29;;;;;;;;;21.75;20.50;;;;;24.72;27.62;100381.00;245545;1183;73600;-59
2023/11/23 21:22:32;;;;;;;;;21.00;21.00;;;;;24.72;27.71;100366.73;245538;1177;57628;-57
2023/11/23 21:27:38;;;;;;;;;19.00;19.00;;;;;24.72;27.59;100355.67;245586;1180;57490;-57
2023/11/23 21:32:42;;;;;;;;;24.00;22.67;;;;;24.72;27.63;100350.76;245553;1183;73888;-58
2023/11/23 21:37:45;;;;;;;;;23.00;22.75;;;;;24.72;27.65;100343.21;245570;1180;57535;-58
2023/11/23 21:42:49;;;;;;;;;19.50;19.50;;;;;24.73;27.65;100334.33;245578;1182;73896;-58
2023/11/23 21:47:52;;;;;;;;;18.75;18.75;;;;;24.72;27.65;100308.91;245605;1179;73205;-58
2023/11/23 21:52:55;;;;;;;;;22.50;22.00;;;;;24.72;27.65;100300.92;245614;1183;73620;-57
2023/11/23 21:57:58;;;;;;;;;20.50;20.50;;;;;24.72;27.80;100295.24;245675;1182;57511;-58
2023/11/23 22:03:02;;;;;;;;;21.25;20.75;;;;;24.72;27.78;100289.95;245680;1182;72909;-57
2023/11/23 22:08:05;;;;;;;;;20.75;20.75;;;;;24.72;27.94;100280.36;245605;1179;72823;-58
2023/11/23 22:13:09;;;;;;;;;21.00;21.00;;;;;24.72;27.88;100263.73;245679;1177;73995;-57
2023/11/23 22:18:13;;;;;;;;;24.00;22.00;;;;;24.70;27.88;100249.15;245675;1182;73352;-58
2023/11/23 22:23:16;;;;;;;;;22.75;21.25;;;;;24.68;27.70;100235.08;245697;1177;73503;-57
2023/11/23 22:28:21;;;;;;;;;24.67;22.33;;;;;24.68;27.67;100222.31;245681;1177;73286;-58
2023/11/23 22:33:24;;;;;;;;;22.25;22.25;;;;;24.68;27.84;100208.42;245692;1183;73641;-58
2023/11/23 22:38:27;;;;;;;;;26.25;25.00;;;;;24.69;27.83;100202.98;245617;1183;73489;-57
2023/11/23 22:43:31;;;;;;;;;21.00;20.25;;;;;24.68;27.82;100191.55;245673;1182;73544;-58
2023/11/23 22:48:34;;;;;;;;;21.50;20.00;;;;;24.68;27.91;100183.32;245711;1177;73892;-57
2023/11/23 22:53:37;;;;;;;;;24.50;22.00;;;;;24.67;27.93;100167.17;245605;1177;74021;-58